ESNK/KRF METAR and TAF weather

Enter ICAO airport designator
Station Type Date Time Source
ESNK METAR 2021/03/01 22:50 UTC NOAA

ESNK 012250Z AUTO 29011KT 9999 NCD 03/M01 Q1017


Station Type Date Time Source
ESNK Decoded METAR 2021/03/01 22:50 UTC NOAA

Kramfors Flygplats, Sweden (ESNK) 63-03N 017-46E 19M
Mar 01, 2021 - 05:50 PM EST / 2021.03.01 2250 UTC
Wind: from the WNW (290 degrees) at 13 MPH (11 KT):0
Visibility: greater than 7 mile(s):0
Temperature: 37 F (3 C)
Dew Point: 30 F (-1 C)
Relative Humidity: 74%
Pressure (altimeter): 30.03 in. Hg (1017 hPa)
ob: ESNK 012250Z AUTO 29011KT 9999 NCD 03/M01 Q1017
cycle: 23

Station Type Date Time Source
ESNK TAF 2017/12/15 06:00 UTC NOAA

TAF
AMD ESNK 150654Z 1506/1521 35005KT 6000 -SN BKN016
TEMPO 1506/1521 2000 SN SG VV009

Example: see airport list